Star Princess — ZCDD6 — position and weather

sailwx.info

Track history (hours):
 
Tides and Currents Weather Stations Pressure Air Temp Water Temp Dewpoint Dewpoint Depression Visibility Wind Speed Wind Dir Waves Ship Positions

Star Princess

Operator: Princess Cruises

Last reported at 2015-May-04 00:00 UTC. Time now 2015-May-04 13:01 UTC.
Position N 23°06' W 153°54'.

Length 289.6 m; beam 36 m; draft 8.4 m.

Type: Ship. MMSI: 310361000.

Wind from 110 at 20 knots

Waves 1.0 meters (3 feet), 6 second period

Barometer 1017.7 mb
Air temperature 27.0 ° C
Visibility: greater than 10.8 NM
Dewpoint 22.4 ° C
Water temperature 25.0 ° C

Date/timePositionNaut miles runAvg speedWind from/ knotsBaromVisibWave heightAir tempDewpointWater temp
2015-May-04 00:00N 23°06' W 153°54'   110 / 201017.710.8 1.027.022.425.0
2015-May-01 14:00N 32°18' W 134°54'21619.7 010 / 191021.210.8 2.516.011.718.1
2015-May-01 03:00N 34°00' W 131°06'22719.7 340 / 361020.3 5.4 4.016.111.517.0
2015-Apr-30 15:28N 35°53' W 127°07'1718.8
2015-Apr-30 14:33N 36°01' W 126°48'5 8.9
2015-Apr-30 14:00N 36°00' W 126°42'2227.5 330 / 441017.2 5.4 3.513.510.116.0
2015-Apr-30 13:12N 36°13' W 126°20'7318.0
2015-Apr-30 09:07N 36°46' W 124°59'1517.3
2015-Apr-30 08:16N 36°53' W 124°42'1216.4
2015-Apr-30 07:33N 36°58' W 124°29'1616.5
2015-Apr-30 06:33N 37°06' W 124°11'1716.8
2015-Apr-30 05:33N 37°14' W 123°52'1616.2
2015-Apr-30 04:33N 37°21' W 123°34'1717.5
2015-Apr-30 03:34N 37°29' W 123°15'1817.7
2015-Apr-30 02:33N 37°38' W 122°55'1414.0
2015-Apr-30 01:33N 37°45' W 122°40'1312.7
2015-Apr-30 00:34N 37°49' W 122°25'1 0.8
2015-Apr-29 23:31N 37°48' W 122°24'0 0.0
2015-Apr-29 22:27N 37°48' W 122°24'0 0.0
2015-Apr-29 21:30N 37°48' W 122°24'0 0.0
2015-Apr-29 20:32N 37°48' W 122°24'0 0.0
2015-Apr-29 19:26N 37°48' W 122°24'0 0.0
2015-Apr-29 18:28N 37°48' W 122°24'0 0.0
2015-Apr-29 17:28N 37°48' W 122°24'0 0.0
2015-Apr-29 16:28N 37°48' W 122°24'0 0.0
2015-Apr-29 15:27N 37°48' W 122°24'0 0.0
2015-Apr-29 14:33N 37°48' W 122°24'0 0.0
2015-Apr-29 13:33N 37°48' W 122°24'4 3.5
2015-Apr-29 12:33N 37°49' W 122°28'1111.5
2015-Apr-29 11:33N 37°42' W 122°40'1413.8
2015-Apr-29 10:34N 37°28' W 122°40'1514.9
2015-Apr-29 09:33N 37°13' W 122°42'1615.3
2015-Apr-29 08:30N 36°58' W 122°50'1414.9
2015-Apr-29 07:34N 36°45' W 122°51'1615.4
2015-Apr-29 06:32N 36°29' W 122°49'1515.4
2015-Apr-29 05:33N 36°15' W 122°41'1515.4
2015-Apr-29 04:33N 36°02' W 122°31'1515.4
2015-Apr-29 03:33N 35°49' W 122°22'1615.8
2015-Apr-29 02:34N 35°35' W 122°12'1615.6
2015-Apr-29 01:33N 35°22' W 122°02'1615.6
2015-Apr-29 00:34N 35°08' W 121°53'1515.4
2015-Apr-28 23:33N 34°55' W 121°43'1615.5
2015-Apr-28 22:33N 34°41' W 121°34'1615.4
2015-Apr-28 21:33N 34°28' W 121°24'1515.4
2015-Apr-28 20:33N 34°15' W 121°15'5315.5
2015-Apr-28 17:09N 33°31' W 120°40'2715.5
2015-Apr-28 15:23N 33°09' W 120°20'1915.8
2015-Apr-28 14:09N 32°54' W 120°05'1515.4
2015-Apr-28 13:10N 32°42' W 119°54'1015.8
2015-Apr-28 12:33N 32°34' W 119°47'1616.0
2015-Apr-28 11:33N 32°22' W 119°36'1716.4
2015-Apr-28 10:32N 32°08' W 119°24'1716.4
2015-Apr-28 09:29N 31°54' W 119°12'1516.5
2015-Apr-28 08:33N 31°42' W 119°01'1616.5
2015-Apr-28 07:33N 31°30' W 118°48'1716.6
2015-Apr-28 06:34N 31°16' W 118°37'1616.2
2015-Apr-28 05:33N 31°04' W 118°24'1716.5
2015-Apr-28 04:31N 30°50' W 118°12'1916.9
2015-Apr-28 03:22N 30°35' W 117°59'1616.7
2015-Apr-28 02:24N 30°22' W 117°47'1416.9
2015-Apr-28 01:33N 30°11' W 117°37'1716.9
2015-Apr-28 00:33N 29°57' W 117°26'2416.8
2015-Apr-27 23:09N 29°38' W 117°09'2421.0
2015-Apr-27 22:00N 29°18' W 116°54'   310 / 201011.710.8 1.518.016.119.0
2015-Apr-25 11:00N 21°18' W 106°42'21621.6 340 / 121010.910.8 1.023.519.927.0
2015-Apr-25 01:00N 23°54' W 109°24'   350 / 121008.810.8 2.024.322.225.0
Track history (hours):
 
Tides and Currents Weather Stations Pressure Air Temp Water Temp Dewpoint Dewpoint Depression Visibility Wind Speed Wind Dir Waves Ship Positions

Star Princess

Operator: Princess Cruises

Last reported at 2015-May-04 00:00 UTC. Time now 2015-May-04 13:01 UTC.
Position N 23°06' W 153°54'.

Length 289.6 m; beam 36 m; draft 8.4 m.

Type: Ship. MMSI: 310361000.

Wind from 110 at 20 knots

Waves 1.0 meters (3 feet), 6 second period

Barometer 1017.7 mb
Air temperature 27.0 ° C
Visibility: greater than 10.8 NM
Dewpoint 22.4 ° C
Water temperature 25.0 ° C

Date/timePositionNaut miles runAvg speedWind from/ knotsBaromVisibWave heightAir tempDewpointWater temp
2015-May-04 00:00N 23°06' W 153°54'   110 / 201017.710.8 1.027.022.425.0
2015-May-01 14:00N 32°18' W 134°54'21619.7 010 / 191021.210.8 2.516.011.718.1
2015-May-01 03:00N 34°00' W 131°06'22719.7 340 / 361020.3 5.4 4.016.111.517.0
2015-Apr-30 15:28N 35°53' W 127°07'1718.8
2015-Apr-30 14:33N 36°01' W 126°48'5 8.9
2015-Apr-30 14:00N 36°00' W 126°42'2227.5 330 / 441017.2 5.4 3.513.510.116.0
2015-Apr-30 13:12N 36°13' W 126°20'7318.0
2015-Apr-30 09:07N 36°46' W 124°59'1517.3
2015-Apr-30 08:16N 36°53' W 124°42'1216.4
2015-Apr-30 07:33N 36°58' W 124°29'1616.5
2015-Apr-30 06:33N 37°06' W 124°11'1716.8
2015-Apr-30 05:33N 37°14' W 123°52'1616.2
2015-Apr-30 04:33N 37°21' W 123°34'1717.5
2015-Apr-30 03:34N 37°29' W 123°15'1817.7
2015-Apr-30 02:33N 37°38' W 122°55'1414.0
2015-Apr-30 01:33N 37°45' W 122°40'1312.7
2015-Apr-30 00:34N 37°49' W 122°25'1 0.8
2015-Apr-29 23:31N 37°48' W 122°24'0 0.0
2015-Apr-29 22:27N 37°48' W 122°24'0 0.0
2015-Apr-29 21:30N 37°48' W 122°24'0 0.0
2015-Apr-29 20:32N 37°48' W 122°24'0 0.0
2015-Apr-29 19:26N 37°48' W 122°24'0 0.0
2015-Apr-29 18:28N 37°48' W 122°24'0 0.0
2015-Apr-29 17:28N 37°48' W 122°24'0 0.0
2015-Apr-29 16:28N 37°48' W 122°24'0 0.0
2015-Apr-29 15:27N 37°48' W 122°24'0 0.0
2015-Apr-29 14:33N 37°48' W 122°24'0 0.0
2015-Apr-29 13:33N 37°48' W 122°24'4 3.5
2015-Apr-29 12:33N 37°49' W 122°28'1111.5
2015-Apr-29 11:33N 37°42' W 122°40'1413.8
2015-Apr-29 10:34N 37°28' W 122°40'1514.9
2015-Apr-29 09:33N 37°13' W 122°42'1615.3
2015-Apr-29 08:30N 36°58' W 122°50'1414.9
2015-Apr-29 07:34N 36°45' W 122°51'1615.4
2015-Apr-29 06:32N 36°29' W 122°49'1515.4
2015-Apr-29 05:33N 36°15' W 122°41'1515.4
2015-Apr-29 04:33N 36°02' W 122°31'1515.4
2015-Apr-29 03:33N 35°49' W 122°22'1615.8
2015-Apr-29 02:34N 35°35' W 122°12'1615.6
2015-Apr-29 01:33N 35°22' W 122°02'1615.6
2015-Apr-29 00:34N 35°08' W 121°53'1515.4
2015-Apr-28 23:33N 34°55' W 121°43'1615.5
2015-Apr-28 22:33N 34°41' W 121°34'1615.4
2015-Apr-28 21:33N 34°28' W 121°24'1515.4
2015-Apr-28 20:33N 34°15' W 121°15'5315.5
2015-Apr-28 17:09N 33°31' W 120°40'2715.5
2015-Apr-28 15:23N 33°09' W 120°20'1915.8
2015-Apr-28 14:09N 32°54' W 120°05'1515.4
2015-Apr-28 13:10N 32°42' W 119°54'1015.8
2015-Apr-28 12:33N 32°34' W 119°47'1616.0
2015-Apr-28 11:33N 32°22' W 119°36'1716.4
2015-Apr-28 10:32N 32°08' W 119°24'1716.4
2015-Apr-28 09:29N 31°54' W 119°12'1516.5
2015-Apr-28 08:33N 31°42' W 119°01'1616.5
2015-Apr-28 07:33N 31°30' W 118°48'1716.6
2015-Apr-28 06:34N 31°16' W 118°37'1616.2
2015-Apr-28 05:33N 31°04' W 118°24'1716.5
2015-Apr-28 04:31N 30°50' W 118°12'1916.9
2015-Apr-28 03:22N 30°35' W 117°59'1616.7
2015-Apr-28 02:24N 30°22' W 117°47'1416.9
2015-Apr-28 01:33N 30°11' W 117°37'1716.9
2015-Apr-28 00:33N 29°57' W 117°26'2416.8
2015-Apr-27 23:09N 29°38' W 117°09'2421.0
2015-Apr-27 22:00N 29°18' W 116°54'   310 / 201011.710.8 1.518.016.119.0
2015-Apr-25 11:00N 21°18' W 106°42'21621.6 340 / 121010.910.8 1.023.519.927.0
2015-Apr-25 01:00N 23°54' W 109°24'   350 / 121008.810.8 2.024.322.225.0

Dump ship's entire track history